CET,Max TemperatureF,Mean TemperatureF,Min TemperatureF,Max Dew PointF,MeanDew PointF,Min DewpointF,Max Humidity, Mean Humidity, Min Humidity, Max Sea Level PressureIn, Mean Sea Level PressureIn, Min Sea Level PressureIn, Max VisibilityMiles, Mean VisibilityMiles, Min VisibilityMiles, Max Wind SpeedMPH, Mean Wind SpeedMPH, Max Gust SpeedMPH,PrecipitationIn, CloudCover, Events, WindDirDegrees
2012-11-1,66,63,60,59,58,57,94,84,73,29.65,29.55,29.39,6,6,5,15,7,,0.00,4,,303
2012-11-2,68,60,51,61,56,50,94,81,64,29.95,29.86,29.74,6,6,6,10,2,,0.00,3,,261
2012-11-3,69,58,46,61,55,43,94,80,64,30.06,30.03,30.01,6,6,6,5,3,,0.00,3,,138
2012-11-4,68,65,62,64,63,61,94,89,88,29.98,29.91,29.86,6,5,3,15,13,,0.00,6,Rain,125
2012-11-5,73,66,60,70,65,57,88,87,82,29.86,29.76,29.71,6,6,3,9,6,,0.00,4,Rain,152
2012-11-6,68,60,51,63,56,48,88,83,68,30.01,29.98,29.92,6,6,6,9,2,,0.00,3,,190
2012-11-7,68,60,51,57,49,41,88,68,37,30.21,30.15,30.06,6,6,6,8,3,,0.00,1,,337
2012-11-8,66,56,46,55,50,43,88,75,56,30.30,30.25,30.18,6,6,6,5,2,,0.00,1,,306
2012-11-9,66,56,46,55,49,43,88,73,43,30.15,30.10,30.06,6,6,6,7,2,,0.00,1,,286
2012-11-10,68,58,48,59,54,45,93,80,68,30.06,30.03,30.01,6,6,6,13,5,,0.00,2,,157
2012-11-11,69,66,64,66,61,50,94,81,56,29.95,29.93,29.89,6,6,4,22,15,,0.00,5,Rain,135
2012-11-12,75,70,66,66,65,63,94,83,69,30.12,30.07,30.04,6,6,6,16,11,,0.00,3,Rain,140
2012-11-13,75,66,57,64,61,54,88,81,69,30.18,30.16,30.15,6,6,6,5,2,,0.00,1,,258
2012-11-14,71,62,53,63,58,50,94,83,68,30.15,30.12,30.09,6,6,4,6,1,,0.00,4,Fog,302
2012-11-15,66,62,59,61,58,55,94,85,68,30.06,30.03,30.01,6,6,6,6,3,,0.00,4,,347
2012-11-16,68,59,50,54,50,46,88,72,46,30.04,30.02,30.01,6,6,6,5,1,,0.00,2,,273
2012-11-17,66,58,50,57,53,48,94,81,64,30.01,29.98,29.92,6,6,6,4,2,,0.00,5,,335
2012-11-18,66,60,55,61,57,52,94,86,78,29.89,29.86,29.83,6,6,5,8,3,,0.00,4,,107
2012-11-19,69,62,55,63,59,52,94,86,73,29.83,29.81,29.80,6,6,6,4,2,,0.00,3,,321
2012-11-20,66,62,59,63,60,55,94,91,88,29.89,29.85,29.80,6,6,6,5,1,,0.00,6,,38
2012-11-21,69,63,57,64,59,54,94,87,78,30.04,30.00,29.95,6,6,6,4,1,,0.00,4,,305
2012-11-22,69,60,50,64,58,48,94,88,78,30.18,30.15,30.12,6,5,5,4,1,,0.00,2,,232
2012-11-23,68,62,55,64,58,52,94,87,73,30.18,30.17,30.15,6,5,4,6,1,,0.00,2,,263
2012-11-24,68,58,48,59,55,46,94,85,73,30.21,30.21,30.21,5,5,4,2,1,,0.00,1,,307
2012-11-25,68,57,46,59,53,43,94,84,60,30.21,30.19,30.15,6,6,4,7,2,,0.00,1,,298
2012-11-26,68,57,46,57,54,45,94,82,68,30.15,30.10,30.06,6,6,6,6,3,,0.00,1,,135
2012-11-27,64,58,53,63,59,50,94,88,83,29.92,29.85,29.77,6,6,4,18,11,31,0.00,5,Rain,122
2012-11-28,69,62,51,66,59,50,94,89,78,29.50,29.38,29.33,6,5,1,33,20,52,0.00,5,Rain-Hail-Thunderstorm,162
2012-11-29,59,55,51,55,52,48,94,87,72,29.33,29.32,29.30,6,5,4,18,9,31,0.00,3,Rain-Thunderstorm,187
2012-11-30,59,54,48,50,45,41,88,73,55,29.62,29.55,29.44,6,6,6,9,3,,0.00,3,,269